Time;durP1;ratioP1;P1;durP2;ratioP2;P2;SDS_P1;SDS_P2;PMS_P1;PMS_P2;Temp;Humidity;BMP_temperature;BMP_pressure;BME280_temperature;BME280_humidity;BME280_pressure;Samples;Min_cycle;Max_cycle;Signal;HPM_P1;HPM_P2
2023/06/10 00:00:44;;;;;;;11.60;6.07;;;;;;;24.10;53.02;99805.38;5020909;28;20246;-66
2023/06/10 00:03:09;;;;;;;9.73;7.27;;;;;;;24.09;53.64;99800.84;5019498;28;20204;-67
2023/06/10 00:05:35;;;;;;;9.53;7.27;;;;;;;24.06;52.91;99807.47;5007304;28;20441;-67
2023/06/10 00:08:06;;;;;;;8.60;6.60;;;;;;;24.07;53.42;99805.41;5016957;28;20192;-65
2023/06/10 00:10:38;;;;;;;12.80;6.70;;;;;;;24.05;52.87;99805.84;5015103;28;20963;-66
2023/06/10 00:13:09;;;;;;;12.20;7.07;;;;;;;24.05;52.63;99796.38;5008624;28;20463;-66
2023/06/10 00:15:35;;;;;;;15.60;7.37;;;;;;;24.04;52.08;99804.19;4998644;28;20476;-67
2023/06/10 00:18:02;;;;;;;10.77;7.00;;;;;;;24.07;52.42;99802.50;5014335;28;20493;-69
2023/06/10 00:20:30;;;;;;;8.47;6.77;;;;;;;24.09;52.33;99805.81;5015457;28;20963;-70
2023/06/10 00:22:56;;;;;;;10.47;7.07;;;;;;;24.07;52.40;99808.28;5012100;28;21086;-67
2023/06/10 00:25:22;;;;;;;12.20;7.50;;;;;;;24.00;52.97;99805.50;5010775;28;20416;-67
2023/06/10 00:27:47;;;;;;;10.47;6.43;;;;;;;24.02;52.52;99800.09;5021802;28;20833;-68
2023/06/10 00:30:13;;;;;;;15.00;6.50;;;;;;;23.97;52.44;99794.81;5014980;28;20196;-69
2023/06/10 00:32:38;;;;;;;11.00;6.83;;;;;;;23.89;52.93;99791.19;5007420;28;20220;-67
2023/06/10 00:35:04;;;;;;;15.53;7.10;;;;;;;23.93;52.66;99796.94;4997714;28;20541;-67
2023/06/10 00:37:30;;;;;;;13.20;7.00;;;;;;;23.96;53.69;99790.28;5027423;28;20214;-66
2023/06/10 00:39:55;;;;;;;8.40;6.60;;;;;;;24.02;53.47;99788.56;5028721;28;20488;-66
2023/06/10 00:42:23;;;;;;;12.70;7.23;;;;;;;24.05;53.76;99794.31;5023683;28;20200;-66
2023/06/10 00:44:50;;;;;;;8.07;6.60;;;;;;;24.09;53.76;99797.94;5009608;28;20259;-67
2023/06/10 00:47:15;;;;;;;11.70;6.60;;;;;;;24.10;53.46;99790.97;5019377;28;20455;-66
2023/06/10 00:49:40;;;;;;;7.03;5.87;;;;;;;24.10;53.93;99790.97;5017766;28;20783;-66
2023/06/10 00:52:06;;;;;;;9.13;6.07;;;;;;;24.11;53.96;99786.81;5015261;28;20757;-67
2023/06/10 00:54:32;;;;;;;11.93;6.70;;;;;;;24.12;54.15;99790.50;5019238;28;20651;-66
2023/06/10 00:57:00;;;;;;;11.53;6.50;;;;;;;24.11;54.33;99792.59;5026961;28;20172;-67
2023/06/10 00:59:26;;;;;;;12.10;6.20;;;;;;;24.12;54.29;99794.22;5009774;28;20188;-67
2023/06/10 01:01:52;;;;;;;9.50;6.90;;;;;;;24.11;54.72;99786.81;5024494;28;20434;-67
2023/06/10 01:04:19;;;;;;;7.10;6.27;;;;;;;24.11;54.66;99786.81;5026961;28;20169;-67
2023/06/10 01:06:55;;;;;;;11.10;6.57;;;;;;;24.11;55.00;99798.34;5021194;28;20188;-66
2023/06/10 01:09:29;;;;;;;8.10;6.60;;;;;;;24.12;54.75;99794.22;5013047;28;20818;-68
2023/06/10 01:12:08;;;;;;;9.73;6.60;;;;;;;24.12;55.00;99793.38;5028235;28;20877;-67
2023/06/10 01:14:33;;;;;;;7.80;6.50;;;;;;;24.12;54.74;99794.22;5048488;28;20394;-68
2023/06/10 01:17:00;;;;;;;8.50;6.43;;;;;;;24.11;55.03;99786.81;5015649;28;20478;-68
2023/06/10 01:19:25;;;;;;;10.90;6.50;;;;;;;24.12;54.79;99790.50;5006745;28;20569;-67
2023/06/10 01:21:51;;;;;;;10.23;7.27;;;;;;;24.11;54.82;99786.81;5010425;28;20475;-67
2023/06/10 01:24:19;;;;;;;8.10;6.17;;;;;;;24.12;55.19;99799.16;5007337;28;20177;-67
2023/06/10 01:26:45;;;;;;;8.90;7.20;;;;;;;24.11;55.10;99786.00;5006518;28;20188;-68
2023/06/10 01:29:15;;;;;;;8.83;5.77;;;;;;;24.11;55.14;99780.22;5009158;28;20783;-67
2023/06/10 01:31:49;;;;;;;7.97;6.43;;;;;;;24.11;54.92;99788.88;5009806;28;20263;-67
2023/06/10 01:34:16;;;;;;;8.23;6.40;;;;;;;24.10;55.11;99785.19;5025551;28;20971;-67
2023/06/10 01:36:47;;;;;;;8.63;6.30;;;;;;;24.10;54.98;99785.19;5012646;28;20470;-66
2023/06/10 01:39:14;;;;;;;7.40;6.47;;;;;;;24.11;55.23;99789.69;5026481;28;20802;-67
2023/06/10 01:41:40;;;;;;;7.83;6.43;;;;;;;24.11;55.07;99794.63;5039405;28;20438;-68
2023/06/10 01:44:05;;;;;;;8.20;5.90;;;;;;;24.10;54.88;99793.84;5030350;28;20473;-66
2023/06/10 01:46:30;;;;;;;8.77;6.53;;;;;;;24.11;55.14;99798.34;5014076;28;20191;-67
2023/06/10 01:48:56;;;;;;;8.10;6.73;;;;;;;24.09;55.53;99797.94;5011208;28;20177;-67
2023/06/10 01:51:21;;;;;;;8.10;6.37;;;;;;;24.10;55.22;99802.50;5011796;28;20637;-67
2023/06/10 01:53:47;;;;;;;8.07;6.40;;;;;;;24.10;54.91;99795.91;5010614;28;20177;-67
2023/06/10 01:56:18;;;;;;;7.43;5.90;;;;;;;24.10;55.13;99801.66;5010490;28;20216;-67
2023/06/10 01:58:44;;;;;;;6.27;5.50;;;;;;;24.09;55.46;99800.84;5026620;28;20618;-67
2023/06/10 02:01:10;;;;;;;9.80;7.10;;;;;;;24.09;55.43;99800.84;5030924;28;20426;-67
2023/06/10 02:03:35;;;;;;;7.13;6.37;;;;;;;24.08;55.44;99796.31;5031272;28;20192;-67
2023/06/10 02:06:01;;;;;;;6.70;5.60;;;;;;;24.09;55.10;99805.81;5027883;28;20189;-68
2023/06/10 02:08:27;;;;;;;9.70;6.50;;;;;;;24.09;55.21;99800.84;4993527;28;20624;-66
2023/06/10 02:10:53;;;;;;;6.50;5.80;;;;;;;24.09;55.21;99803.72;5014134;28;20204;-69
2023/06/10 02:13:18;;;;;;;7.03;5.37;;;;;;;24.08;55.35;99804.97;5045236;28;20408;-68
2023/06/10 02:15:44;;;;;;;7.57;6.30;;;;;;;24.08;55.05;99802.09;5008421;28;20239;-68
2023/06/10 02:18:11;;;;;;;7.77;6.27;;;;;;;24.08;54.91;99802.09;5029734;28;20200;-69
2023/06/10 02:20:37;;;;;;;8.93;6.43;;;;;;;24.08;55.06;99816.50;5029037;28;20268;-68
2023/06/10 02:23:03;;;;;;;7.37;6.20;;;;;;;24.07;55.31;99809.13;5011348;28;20606;-68
2023/06/10 02:25:28;;;;;;;10.87;6.17;;;;;;;24.07;55.05;99811.16;5009585;28;21043;-68
2023/06/10 02:27:54;;;;;;;9.83;5.83;;;;;;;24.08;55.20;99812.81;5012299;28;20744;-67
2023/06/10 02:30:19;;;;;;;7.53;5.80;;;;;;;24.07;55.05;99814.88;5013135;28;20184;-68
2023/06/10 02:32:47;;;;;;;8.37;6.30;;;;;;;24.07;55.31;99819.81;5027720;28;20180;-68
2023/06/10 02:35:14;;;;;;;8.20;5.90;;;;;;;24.06;55.03;99819.03;5010379;28;20250;-69
2023/06/10 02:37:39;;;;;;;7.63;5.70;;;;;;;24.06;55.49;99813.25;5009575;28;20438;-68
2023/06/10 02:40:06;;;;;;;7.33;5.83;;;;;;;24.06;55.29;99819.03;5012711;28;20811;-67
2023/06/10 02:42:31;;;;;;;8.43;6.13;;;;;;;24.06;55.61;99823.97;5032200;28;20291;-68
2023/06/10 02:44:56;;;;;;;8.70;6.47;;;;;;;24.04;55.08;99827.25;5026744;28;20446;-68
2023/06/10 02:47:22;;;;;;;8.27;5.90;;;;;;;24.05;55.13;99834.69;5030421;28;20173;-68
2023/06/10 02:49:47;;;;;;;10.73;6.80;;;;;;;24.07;55.19;99837.13;5030412;28;20173;-68
2023/06/10 02:52:13;;;;;;;8.33;6.27;;;;;;;24.05;55.09;99831.81;5030055;28;20161;-68
2023/06/10 02:54:39;;;;;;;7.07;5.87;;;;;;;24.05;55.04;99837.59;5021182;28;20280;-68
2023/06/10 02:57:06;;;;;;;6.33;5.53;;;;;;;24.05;54.66;99833.88;5015328;28;20509;-68
2023/06/10 02:59:31;;;;;;;7.13;5.83;;;;;;;24.05;54.84;99836.75;5027093;28;20455;-68
2023/06/10 03:01:57;;;;;;;6.63;5.83;;;;;;;24.04;55.13;99835.91;5011519;28;20440;-69
2023/06/10 03:04:23;;;;;;;7.00;6.20;;;;;;;24.04;55.10;99838.81;5012597;28;20178;-69
2023/06/10 03:06:49;;;;;;;7.20;5.90;;;;;;;24.04;54.97;99838.00;5012521;28;20193;-68
2023/06/10 03:09:14;;;;;;;7.63;6.40;;;;;;;24.04;55.16;99844.56;5008879;28;20447;-69
2023/06/10 03:11:39;;;;;;;8.57;6.00;;;;;;;24.03;55.19;99840.06;5019231;28;20200;-68
2023/06/10 03:14:05;;;;;;;7.77;5.60;;;;;;;24.05;55.21;99842.53;5008843;28;20177;-68
2023/06/10 03:16:31;;;;;;;7.63;6.07;;;;;;;24.03;55.12;99842.94;5011675;28;20224;-68
2023/06/10 03:18:56;;;;;;;7.17;5.70;;;;;;;24.03;55.12;99842.13;5026139;28;20215;-69
2023/06/10 03:21:22;;;;;;;6.70;5.70;;;;;;;24.03;55.18;99845.81;5030235;28;20172;-69
2023/06/10 03:23:47;;;;;;;9.53;6.90;;;;;;;24.03;55.21;99851.59;5026233;28;20214;-69
2023/06/10 03:26:14;;;;;;;7.43;5.60;;;;;;;24.03;55.33;99847.91;5009547;28;20166;-69
2023/06/10 03:28:39;;;;;;;7.47;6.17;;;;;;;24.02;55.07;99841.31;5010065;28;20212;-68
2023/06/10 03:31:05;;;;;;;10.40;6.93;;;;;;;24.01;54.91;99848.34;5012340;28;20452;-69
2023/06/10 03:33:31;;;;;;;7.07;6.13;;;;;;;24.02;55.60;99846.25;5006772;28;20644;-68
2023/06/10 03:35:56;;;;;;;8.30;6.00;;;;;;;24.01;55.00;99851.22;5010187;28;20184;-68
2023/06/10 03:38:22;;;;;;;8.43;6.30;;;;;;;24.01;55.21;99856.97;5028017;28;20200;-68
2023/06/10 03:40:47;;;;;;;7.50;6.07;;;;;;;24.01;54.85;99850.38;5029086;28;20176;-68
2023/06/10 03:43:13;;;;;;;8.07;5.83;;;;;;;24.00;55.28;99858.25;5022234;28;20209;-68
2023/06/10 03:45:38;;;;;;;7.30;6.10;;;;;;;24.01;54.91;99861.91;5009300;28;20618;-67
2023/06/10 03:48:04;;;;;;;7.57;6.47;;;;;;;24.00;55.19;99858.25;5021687;28;20181;-68
2023/06/10 03:50:29;;;;;;;6.73;5.83;;;;;;;24.01;55.10;99859.88;4974435;28;20184;-69
2023/06/10 03:52:55;;;;;;;8.57;6.27;;;;;;;24.01;54.86;99867.69;5019960;28;20303;-69
2023/06/10 03:55:21;;;;;;;11.97;6.37;;;;;;;24.00;55.35;99872.66;5008082;28;20189;-68
2023/06/10 03:57:48;;;;;;;7.97;6.03;;;;;;;24.00;55.16;99871.81;4991492;28;20243;-68
2023/06/10 04:00:15;;;;;;;7.30;5.50;;;;;;;23.99;55.19;99873.88;5019256;28;20438;-68
2023/06/10 04:02:48;;;;;;;9.10;6.10;;;;;;;23.99;55.13;99882.53;5029346;28;20466;-68
2023/06/10 04:05:14;;;;;;;7.23;6.20;;;;;;;23.99;55.29;99871.00;5025225;28;20536;-68
2023/06/10 04:07:42;;;;;;;7.30;5.80;;;;;;;24.00;55.28;99866.06;5003128;28;20544;-68
2023/06/10 04:10:08;;;;;;;9.27;6.47;;;;;;;23.99;55.32;99870.19;5028304;28;20445;-68
2023/06/10 04:12:34;;;;;;;6.93;5.63;;;;;;;23.99;55.01;99876.75;5044973;28;20513;-68
2023/06/10 04:15:00;;;;;;;7.83;6.37;;;;;;;23.99;55.31;99870.19;5038270;28;20443;-68
2023/06/10 04:17:25;;;;;;;7.10;6.00;;;;;;;23.99;54.99;99875.97;5007087;28;20248;-68
2023/06/10 04:19:51;;;;;;;8.40;6.27;;;;;;;23.99;55.10;99875.97;5006953;28;20419;-68
2023/06/10 04:22:17;;;;;;;8.07;6.40;;;;;;;23.98;55.20;99875.13;4993025;28;20240;-68
2023/06/10 04:24:43;;;;;;;6.97;5.70;;;;;;;23.98;55.20;99875.13;5006549;28;20456;-68
2023/06/10 04:27:08;;;;;;;7.83;6.90;;;;;;;23.99;55.06;99876.75;5010346;28;20215;-67
2023/06/10 04:29:34;;;;;;;7.20;6.20;;;;;;;23.99;55.03;99888.31;5008256;28;20522;-68
2023/06/10 04:32:01;;;;;;;8.73;6.03;;;;;;;23.98;55.29;99885.88;5007122;28;20551;-68
2023/06/10 04:34:27;;;;;;;7.47;5.90;;;;;;;23.99;55.14;99894.06;5002356;28;20192;-68
2023/06/10 04:36:52;;;;;;;8.17;5.73;;;;;;;24.00;55.31;99894.91;5028116;28;20415;-69
2023/06/10 04:39:18;;;;;;;7.27;6.50;;;;;;;24.00;55.13;99901.50;5018387;28;20189;-69
2023/06/10 04:41:43;;;;;;;7.30;6.03;;;;;;;24.04;55.01;99895.69;5025825;28;20183;-69
2023/06/10 04:44:10;;;;;;;6.50;5.37;;;;;;;24.05;55.32;99898.16;5028811;28;20232;-68
2023/06/10 04:46:36;;;;;;;9.53;7.03;;;;;;;24.07;55.65;99897.69;5026496;28;20192;-67
2023/06/10 04:49:01;;;;;;;8.77;6.27;;;;;;;24.07;55.00;99904.28;5027461;28;20783;-68
2023/06/10 04:51:27;;;;;;;8.93;6.43;;;;;;;24.06;54.95;99905.53;4994180;28;20185;-69
2023/06/10 04:53:53;;;;;;;8.13;6.00;;;;;;;24.06;55.36;99904.72;5022464;28;20184;-68
2023/06/10 04:56:19;;;;;;;8.53;6.40;;;;;;;24.05;55.23;99901.03;5026683;28;20892;-68
2023/06/10 04:58:44;;;;;;;8.20;5.90;;;;;;;24.05;55.44;99906.81;5027357;28;20160;-68
2023/06/10 05:01:10;;;;;;;7.17;5.80;;;;;;;24.04;55.50;99902.25;5035895;28;20185;-68
2023/06/10 05:03:35;;;;;;;8.77;6.10;;;;;;;24.06;55.44;99899.78;5006667;28;20197;-68
2023/06/10 05:06:01;;;;;;;6.77;5.60;;;;;;;24.06;55.37;99902.66;5007461;28;20169;-68
2023/06/10 05:08:26;;;;;;;7.97;6.30;;;;;;;24.09;55.10;99910.44;5009779;28;20197;-68
2023/06/10 05:10:52;;;;;;;6.80;5.80;;;;;;;24.09;55.52;99910.44;5013360;28;20196;-68
2023/06/10 05:13:17;;;;;;;6.73;6.03;;;;;;;24.09;55.39;99904.66;5029517;28;20188;-69
2023/06/10 05:15:44;;;;;;;8.10;6.03;;;;;;;24.10;55.30;99906.34;5008939;28;20688;-68
2023/06/10 05:18:11;;;;;;;8.17;6.17;;;;;;;24.11;55.35;99910.03;5007090;28;20272;-68
2023/06/10 05:20:37;;;;;;;8.27;6.47;;;;;;;24.12;55.08;99915.38;5015319;28;20427;-68
2023/06/10 05:23:02;;;;;;;7.10;6.23;;;;;;;24.13;55.14;99911.22;5028487;28;20566;-69
2023/06/10 05:25:30;;;;;;;8.67;7.20;;;;;;;24.14;54.91;99914.94;5011944;28;20243;-68
2023/06/10 05:27:55;;;;;;;6.83;5.90;;;;;;;24.15;54.95;99920.28;5008666;28;20197;-68
2023/06/10 05:30:21;;;;;;;7.10;6.10;;;;;;;24.15;54.80;99917.41;5013863;28;20461;-68
2023/06/10 05:32:46;;;;;;;7.00;5.63;;;;;;;24.13;54.97;99914.13;5027992;28;20160;-68
2023/06/10 05:35:12;;;;;;;7.60;6.27;;;;;;;24.12;54.82;99912.47;5023217;28;20200;-68
2023/06/10 05:37:37;;;;;;;8.17;7.03;;;;;;;24.12;54.80;99914.53;5009998;28;20192;-68
2023/06/10 05:40:04;;;;;;;8.03;6.10;;;;;;;24.11;54.80;99916.63;5028056;28;20173;-69
2023/06/10 05:42:30;;;;;;;6.63;5.60;;;;;;;24.10;54.89;99914.16;5034420;28;20209;-69
2023/06/10 05:44:55;;;;;;;8.50;6.33;;;;;;;24.10;54.70;99915.00;5018232;28;20471;-67
2023/06/10 05:47:20;;;;;;;7.67;6.23;;;;;;;24.10;54.66;99914.16;5006564;28;20180;-69
2023/06/10 05:49:48;;;;;;;7.67;6.50;;;;;;;24.10;54.94;99917.88;5009171;28;20183;-69
2023/06/10 05:52:13;;;;;;;7.50;6.50;;;;;;;24.11;54.96;99918.69;5006370;28;20165;-68
2023/06/10 05:54:39;;;;;;;7.87;6.90;;;;;;;24.10;54.92;99917.03;5006546;28;20427;-67
2023/06/10 05:57:05;;;;;;;7.50;6.70;;;;;;;24.10;55.27;99919.94;5011869;28;20227;-67
2023/06/10 05:59:31;;;;;;;8.63;6.43;;;;;;;24.09;55.05;99921.97;5006667;28;20602;-66
2023/06/10 06:01:56;;;;;;;7.67;6.07;;;;;;;24.12;54.82;99921.13;5009792;28;20443;-66
2023/06/10 06:04:22;;;;;;;9.03;6.60;;;;;;;24.15;54.89;99922.34;5028181;28;20181;-66
2023/06/10 06:06:47;;;;;;;7.43;5.93;;;;;;;24.16;54.75;99923.97;5027149;28;20188;-67
2023/06/10 06:09:13;;;;;;;7.43;6.20;;;;;;;24.18;54.88;99921.50;5027482;28;20196;-69
2023/06/10 06:11:38;;;;;;;6.73;5.97;;;;;;;24.21;55.11;99917.75;5009045;28;20199;-69
2023/06/10 06:14:04;;;;;;;8.73;6.90;;;;;;;24.19;55.19;99923.94;5043202;28;20663;-68
2023/06/10 06:16:29;;;;;;;8.13;6.33;;;;;;;24.19;54.97;99926.81;5015522;28;20844;-68
2023/06/10 06:18:55;;;;;;;7.40;5.80;;;;;;;24.18;54.97;99915.72;5010867;28;20189;-69
2023/06/10 06:21:20;;;;;;;7.60;5.40;;;;;;;24.17;54.96;99922.72;5011283;28;20177;-69
2023/06/10 06:23:46;;;;;;;7.70;6.37;;;;;;;24.13;54.95;99925.66;5012263;28;20205;-68
2023/06/10 06:26:11;;;;;;;6.90;5.60;;;;;;;24.12;54.97;99914.53;5010834;28;20644;-68
2023/06/10 06:28:36;;;;;;;7.07;5.90;;;;;;;24.11;55.03;99921.56;5011265;28;20770;-68
2023/06/10 06:31:02;;;;;;;8.50;5.37;;;;;;;24.09;54.96;99919.09;5021304;28;20187;-68
2023/06/10 06:33:27;;;;;;;7.33;5.67;;;;;;;24.09;54.77;99924.88;5021546;28;20189;-69
2023/06/10 06:35:53;;;;;;;7.83;6.00;;;;;;;24.09;54.94;99927.75;5042284;28;20200;-69
2023/06/10 06:38:18;;;;;;;6.97;5.63;;;;;;;24.09;55.11;99926.94;5029657;28;20180;-68
2023/06/10 06:40:44;;;;;;;6.67;5.83;;;;;;;24.08;55.32;99925.31;5029340;28;20180;-68
2023/06/10 06:43:09;;;;;;;7.60;5.67;;;;;;;24.07;55.02;99921.59;5014171;28;20217;-68
2023/06/10 06:45:35;;;;;;;6.07;5.03;;;;;;;24.08;55.17;99926.13;5028660;28;20188;-68
2023/06/10 06:48:00;;;;;;;8.93;5.97;;;;;;;24.08;54.92;99922.44;4996459;28;20180;-68
2023/06/10 06:50:26;;;;;;;6.13;5.33;;;;;;;24.09;54.98;99927.75;5029029;28;20176;-68
2023/06/10 06:52:51;;;;;;;6.20;5.40;;;;;;;24.10;55.10;99929.41;5029544;28;20173;-68
2023/06/10 06:55:16;;;;;;;7.50;5.90;;;;;;;24.11;55.20;99925.28;5011605;28;20177;-68
2023/06/10 06:57:42;;;;;;;7.80;5.63;;;;;;;24.12;55.08;99937.59;5010798;28;20188;-68
2023/06/10 07:00:08;;;;;;;7.80;6.47;;;;;;;24.13;55.32;99936.38;5009794;28;20180;-67
2023/06/10 07:02:35;;;;;;;9.10;6.50;;;;;;;24.13;55.31;99934.31;5018292;28;20284;-68
2023/06/10 07:05:00;;;;;;;9.67;6.33;;;;;;;24.12;55.18;99932.69;5013177;28;20434;-68
2023/06/10 07:07:26;;;;;;;7.57;6.50;;;;;;;24.12;55.14;99926.91;5030640;28;20990;-68
2023/06/10 07:09:52;;;;;;;7.87;5.87;;;;;;;24.11;55.02;99928.16;5030158;28;20603;-68
2023/06/10 07:12:18;;;;;;;6.70;5.37;;;;;;;24.12;55.29;99923.19;5043186;28;20195;-67
2023/06/10 07:14:44;;;;;;;8.60;5.57;;;;;;;24.11;55.21;99928.16;5036650;28;20437;-68
2023/06/10 07:17:09;;;;;;;7.07;5.50;;;;;;;24.10;55.24;99920.75;5012031;28;20845;-68
2023/06/10 07:19:35;;;;;;;6.77;6.03;;;;;;;24.10;55.30;99932.28;5025803;28;20204;-68
2023/06/10 07:22:00;;;;;;;7.10;5.90;;;;;;;24.10;55.48;99926.53;5029480;28;20269;-68
2023/06/10 07:24:25;;;;;;;7.83;5.40;;;;;;;24.10;55.33;99929.41;5028742;28;20206;-68
2023/06/10 07:26:51;;;;;;;7.40;5.80;;;;;;;24.10;55.46;99929.41;5028260;28;20180;-68
2023/06/10 07:29:16;;;;;;;6.87;5.37;;;;;;;24.09;55.57;99921.19;5024150;28;20180;-67
2023/06/10 07:31:42;;;;;;;7.80;6.33;;;;;;;24.11;55.77;99933.09;4991032;28;20185;-68
2023/06/10 07:34:07;;;;;;;6.77;6.07;;;;;;;24.11;55.47;99931.03;5010120;28;20172;-69
2023/06/10 07:36:33;;;;;;;6.70;5.50;;;;;;;24.10;55.61;99935.19;5010791;28;20189;-68
2023/06/10 07:38:58;;;;;;;6.67;5.67;;;;;;;24.10;55.71;99935.19;5010419;28;20177;-68
2023/06/10 07:41:27;;;;;;;9.87;5.73;;;;;;;24.09;55.72;99929.84;5023169;28;20587;-68
2023/06/10 07:43:54;;;;;;;6.93;5.87;;;;;;;24.10;56.25;99931.47;5014574;28;20269;-68
2023/06/10 07:46:21;;;;;;;7.03;5.57;;;;;;;24.10;55.96;99922.81;5008934;28;20506;-68
2023/06/10 07:48:47;;;;;;;8.70;5.90;;;;;;;24.09;56.15;99932.72;5020721;28;20435;-67
2023/06/10 07:51:12;;;;;;;6.60;5.40;;;;;;;24.09;56.17;99927.75;5001110;28;20420;-68
2023/06/10 07:53:37;;;;;;;6.07;5.47;;;;;;;24.08;55.82;99923.22;5021535;28;20838;-68
2023/06/10 07:56:03;;;;;;;7.17;5.73;;;;;;;24.10;55.78;99922.81;5014433;28;20540;-68
2023/06/10 07:58:28;;;;;;;6.60;5.87;;;;;;;24.09;55.73;99921.97;5016730;28;20193;-68
2023/06/10 08:00:54;;;;;;;7.57;5.80;;;;;;;24.10;55.72;99932.28;5015921;28;20781;-68
2023/06/10 08:03:19;;;;;;;8.77;5.90;;;;;;;24.11;55.55;99931.03;5026212;28;20602;-68
2023/06/10 08:05:45;;;;;;;6.10;5.50;;;;;;;24.11;55.75;99924.44;5017500;28;20173;-68
2023/06/10 08:08:10;;;;;;;7.10;6.03;;;;;;;24.10;55.85;99932.28;5001512;28;20212;-68
2023/06/10 08:10:36;;;;;;;8.53;5.03;;;;;;;24.11;55.73;99933.09;5015866;28;20667;-69
2023/06/10 08:13:01;;;;;;;7.63;5.60;;;;;;;24.10;55.94;99937.22;5045789;28;20191;-68
2023/06/10 08:15:27;;;;;;;8.83;5.87;;;;;;;24.12;55.99;99943.38;5048650;28;20183;-68
2023/06/10 08:17:52;;;;;;;6.67;5.73;;;;;;;24.11;55.93;99938.88;5048510;28;20168;-68
2023/06/10 08:20:18;;;;;;;5.97;5.37;;;;;;;24.10;55.90;99938.06;5010457;28;20208;-68
2023/06/10 08:22:43;;;;;;;6.90;5.27;;;;;;;24.11;56.23;99936.81;5022282;28;20200;-69
2023/06/10 08:25:09;;;;;;;7.10;5.90;;;;;;;24.11;55.95;99939.69;5017739;28;20234;-68
2023/06/10 08:27:35;;;;;;;6.43;5.73;;;;;;;24.11;55.88;99931.03;4999533;28;20872;-69
2023/06/10 08:30:00;;;;;;;9.30;5.53;;;;;;;24.11;56.04;99935.97;5020225;28;20181;-68
2023/06/10 08:32:26;;;;;;;9.50;6.20;;;;;;;24.12;55.94;99931.84;5018295;28;20596;-68
2023/06/10 08:34:51;;;;;;;8.63;5.50;;;;;;;24.11;56.05;99930.22;5008930;28;20199;-69
2023/06/10 08:37:17;;;;;;;7.30;5.90;;;;;;;24.12;56.43;99928.97;5014090;28;20189;-68
2023/06/10 08:39:42;;;;;;;7.07;5.83;;;;;;;24.11;56.45;99933.09;5008063;28;20165;-69
2023/06/10 08:42:11;;;;;;;8.60;6.03;;;;;;;24.11;56.16;99931.03;5022166;28;20192;-69
2023/06/10 08:44:38;;;;;;;8.60;5.43;;;;;;;24.11;56.45;99931.03;5021007;28;20176;-67
2023/06/10 08:47:08;;;;;;;9.90;5.83;;;;;;;24.16;56.15;99926.88;5019651;28;20467;-67
2023/06/10 08:49:34;;;;;;;14.57;6.73;;;;;;;24.18;56.58;99930.97;5031674;28;20431;-67
2023/06/10 08:52:00;;;;;;;11.33;5.93;;;;;;;24.24;57.93;99932.13;5007509;28;20407;-66
2023/06/10 08:54:28;;;;;;;11.40;6.00;;;;;;;24.29;57.82;99928.78;5027074;28;20521;-66
2023/06/10 08:56:55;;;;;;;25.27;8.03;;;;;;;24.31;58.81;99917.63;5026778;28;20463;-66
2023/06/10 08:59:20;;;;;;;19.17;7.73;;;;;;;24.32;58.94;99919.25;5016304;28;20499;-66
2023/06/10 09:01:46;;;;;;;21.93;7.27;;;;;;;24.31;59.24;99926.28;5001257;28;20939;-65
2023/06/10 09:04:12;;;;;;;13.53;7.47;;;;;;;24.45;59.54;99919.53;5021934;28;20212;-65
2023/06/10 09:06:37;;;;;;;12.83;7.00;;;;;;;24.53;59.32;99913.22;5017018;28;20450;-64
2023/06/10 09:09:03;;;;;;;11.47;7.20;;;;;;;24.53;59.50;99909.53;5014562;28;20256;-65
2023/06/10 09:11:28;;;;;;;13.10;8.27;;;;;;;24.53;59.51;99913.22;5028812;28;20881;-65
2023/06/10 09:13:54;;;;;;;11.67;7.50;;;;;;;24.52;58.79;99902.94;5012450;28;20169;-66
2023/06/10 09:16:19;;;;;;;13.13;8.13;;;;;;;24.54;59.73;99908.28;5016775;28;20224;-65
2023/06/10 09:18:45;;;;;;;15.90;7.53;;;;;;;24.55;59.79;99901.25;5026046;28;21145;-65
2023/06/10 09:21:11;;;;;;;17.23;8.17;;;;;;;24.55;59.46;99907.88;5025172;28;20211;-65
2023/06/10 09:23:37;;;;;;;9.97;6.37;;;;;;;24.56;59.91;99894.22;5013975;28;20580;-65
2023/06/10 09:26:05;;;;;;;11.80;7.60;;;;;;;24.58;59.38;99903.28;5011047;28;20185;-66
2023/06/10 09:28:30;;;;;;;11.13;7.30;;;;;;;24.62;60.78;99904.91;5014563;28;20778;-67
2023/06/10 09:31:04;;;;;;;12.40;7.87;;;;;;;24.63;60.25;99902.84;5012097;28;20439;-66
2023/06/10 09:33:29;;;;;;;10.27;7.50;;;;;;;24.63;60.75;99900.75;5014705;28;20196;-66
2023/06/10 09:35:56;;;;;;;10.93;7.50;;;;;;;24.64;59.93;99896.63;5021412;28;20990;-66
2023/06/10 09:38:22;;;;;;;10.10;6.90;;;;;;;24.61;61.49;99894.63;5016738;28;20205;-65
2023/06/10 09:40:51;;;;;;;13.40;7.67;;;;;;;24.68;60.95;99896.59;5024364;28;20495;-65
2023/06/10 09:43:17;;;;;;;10.33;7.03;;;;;;;24.72;60.93;99891.56;5021239;28;20608;-67
2023/06/10 09:45:43;;;;;;;9.73;7.00;;;;;;;24.76;60.46;99893.19;5010771;28;20447;-67
2023/06/10 09:48:08;;;;;;;11.50;6.87;;;;;;;24.82;58.93;99899.28;5033443;28;20676;-66
2023/06/10 09:50:34;;;;;;;12.03;7.00;;;;;;;24.84;58.73;99896.78;5007372;28;20489;-67
2023/06/10 09:53:02;;;;;;;9.00;6.67;;;;;;;24.84;59.98;99888.91;5013366;28;20900;-65
2023/06/10 09:55:27;;;;;;;9.10;6.17;;;;;;;24.86;59.32;99889.31;5019098;28;20443;-66
2023/06/10 09:57:53;;;;;;;10.57;6.40;;;;;;;24.88;59.33;99895.47;5000682;28;20419;-66
2023/06/10 10:00:19;;;;;;;9.07;7.00;;;;;;;24.92;58.91;99884.69;5012396;28;20185;-65
2023/06/10 10:02:49;;;;;;;10.00;7.07;;;;;;;24.92;57.95;99886.75;5013545;28;20673;-67
2023/06/10 10:05:15;;;;;;;8.63;6.33;;;;;;;24.91;57.50;99885.13;5014319;28;20841;-66
2023/06/10 10:07:41;;;;;;;11.40;5.87;;;;;;;24.89;57.61;99888.44;5019967;28;20818;-67
2023/06/10 10:10:08;;;;;;;13.83;6.37;;;;;;;24.92;57.48;99883.88;5018743;28;20846;-66
2023/06/10 10:12:34;;;;;;;13.67;6.60;;;;;;;24.94;57.01;99879.28;5013171;28;20434;-66
2023/06/10 10:14:59;;;;;;;8.27;6.33;;;;;;;24.93;56.61;99862.41;5014717;28;20447;-66
2023/06/10 10:17:25;;;;;;;15.20;7.13;;;;;;;24.95;56.39;99869.41;5019660;28;20274;-66
2023/06/10 10:19:54;;;;;;;8.70;6.90;;;;;;;24.97;56.39;99864.00;5015884;28;20243;-65
2023/06/10 10:22:26;;;;;;;16.10;6.97;;;;;;;24.92;57.64;99870.25;5013546;28;20964;-65
2023/06/10 10:24:53;;;;;;;9.87;6.70;;;;;;;24.91;58.04;99868.63;5021386;28;20435;-65
2023/06/10 10:27:36;;;;;;;9.90;6.87;;;;;;;24.90;57.04;99864.09;5021304;28;20457;-66
2023/06/10 10:30:04;;;;;;;35.93;7.30;;;;;;;24.88;57.09;99863.69;5016548;28;20434;-65
2023/06/10 10:32:32;;;;;;;14.63;7.70;;;;;;;25.16;58.61;99854.63;4997442;28;21053;-66
2023/06/10 10:35:08;;;;;;;14.33;7.93;;;;;;;25.28;57.93;99856.13;5020526;28;20442;-65
2023/06/10 10:37:35;;;;;;;14.97;9.33;;;;;;;25.33;58.97;99853.53;5014640;28;21301;-64
2023/06/10 10:40:00;;;;;;;13.50;8.80;;;;;;;25.45;58.01;99855.81;5017256;28;20514;-65
2023/06/10 10:42:26;;;;;;;11.50;9.77;;;;;;;25.49;58.75;99865.22;5014623;28;20504;-66
2023/06/10 10:44:51;;;;;;;17.10;10.80;;;;;;;25.55;58.76;99854.81;5010961;28;20243;-66
2023/06/10 10:47:17;;;;;;;17.03;10.00;;;;;;;25.54;58.19;99858.94;5014676;28;20189;-66
2023/06/10 10:49:43;;;;;;;17.67;10.63;;;;;;;25.54;58.24;99852.38;5004412;28;20188;-65
2023/06/10 10:52:11;;;;;;;12.63;8.63;;;;;;;25.49;57.10;99850.78;5017402;28;20897;-66
2023/06/10 10:54:40;;;;;;;8.60;7.30;;;;;;;25.65;54.82;99850.09;5015912;28;20451;-65
2023/06/10 10:57:19;;;;;;;10.70;7.37;;;;;;;25.57;54.78;99851.47;5017314;28;21119;-67
2023/06/10 11:00:04;;;;;;;20.30;7.60;;;;;;;25.52;55.09;99847.03;5000694;28;21241;-67
2023/06/10 11:02:43;;;;;;;10.43;7.43;;;;;;;25.49;54.08;99845.00;5012917;28;20459;-66
2023/06/10 11:05:09;;;;;;;8.67;6.90;;;;;;;25.47;54.49;99858.25;5011462;28;20442;-66
2023/06/10 11:07:36;;;;;;;8.03;6.20;;;;;;;25.46;54.38;99850.84;5018241;28;20446;-66
2023/06/10 11:10:09;;;;;;;12.40;7.10;;;;;;;25.40;54.96;99841.88;5017492;28;20541;-66
2023/06/10 11:12:45;;;;;;;7.73;6.93;;;;;;;25.45;54.26;99844.25;5015138;28;20431;-66
2023/06/10 11:15:13;;;;;;;9.73;6.90;;;;;;;25.41;54.02;99842.66;5018262;28;21080;-66
2023/06/10 11:18:13;;;;;;;7.87;6.47;;;;;;;25.43;53.92;99846.75;5030318;28;20511;-66
2023/06/10 11:20:41;;;;;;;9.43;6.97;;;;;;;25.42;53.72;99842.25;5015796;28;20427;-65
2023/06/10 11:23:07;;;;;;;7.90;6.33;;;;;;;25.45;53.56;99844.25;5017378;28;20529;-66
2023/06/10 11:25:40;;;;;;;8.83;6.80;;;;;;;25.37;54.16;99845.63;5021273;28;20442;-66
2023/06/10 11:28:18;;;;;;;8.43;6.20;;;;;;;25.37;53.63;99842.75;5009337;28;20185;-66